createdAt,value
2022-09-06T09:23:33.241Z,3.97
2022-09-06T12:38:17.290Z,6.68
2022-09-06T12:40:52.619Z,7.68
2022-09-06T12:43:19.818Z,6.60
2022-09-06T12:45:50.874Z,6.47
2022-09-06T12:51:06.050Z,5.82
2022-09-06T12:53:35.080Z,5.22
2022-09-06T12:56:08.637Z,5.03
2022-09-06T12:58:37.090Z,5.35
2022-09-06T13:01:17.340Z,4.63
2022-09-06T13:04:05.308Z,5.40
2022-09-06T13:09:02.189Z,4.78
2022-09-06T13:11:38.759Z,5.30
2022-09-06T13:14:32.252Z,4.30
2022-09-06T13:17:00.369Z,3.70
2022-09-06T13:19:33.477Z,3.92
2022-09-06T13:22:03.925Z,3.90
2022-09-06T13:24:47.754Z,3.50
2022-09-06T13:27:33.959Z,4.03
2022-09-06T13:30:09.607Z,4.50
2022-09-06T13:32:45.976Z,3.88
2022-09-06T13:35:28.957Z,4.50
2022-09-06T13:38:35.044Z,4.22
2022-09-06T13:41:12.758Z,4.22
2022-09-06T13:43:45.353Z,3.47
2022-09-06T13:46:12.606Z,4.90
2022-09-06T13:48:39.998Z,4.50
2022-09-06T13:51:10.466Z,4.13
2022-09-06T13:53:37.640Z,4.20
2022-09-06T13:56:08.988Z,4.30
2022-09-06T13:58:36.778Z,4.10
2022-09-06T14:01:08.775Z,4.03
2022-09-06T14:03:38.337Z,3.75
2022-09-06T14:06:05.538Z,3.78
2022-09-06T14:08:49.580Z,3.70
2022-09-06T14:11:31.103Z,4.50
2022-09-06T14:13:58.255Z,4.45
2022-09-06T14:16:25.452Z,3.97
2022-09-06T14:18:52.706Z,4.80
2022-09-06T14:21:19.794Z,4.43
2022-09-06T14:23:52.895Z,4.38
2022-09-06T14:26:21.705Z,4.30
2022-09-06T14:28:50.015Z,4.47
2022-09-06T14:31:20.762Z,3.70
2022-09-06T14:33:49.051Z,4.05
2022-09-06T14:36:19.017Z,3.95
2022-09-06T14:38:46.872Z,3.97
2022-09-06T14:41:15.677Z,3.88
2022-09-06T14:43:43.777Z,3.85
2022-09-06T14:46:14.364Z,3.90
2022-09-06T14:48:42.754Z,4.25
